createdAt,value
2022-11-06T00:01:18.114Z,101315.72
2022-11-06T00:03:51.449Z,101321.75
2022-11-06T00:06:40.413Z,101322.31
2022-11-06T00:09:15.797Z,101323.94
2022-11-06T00:11:47.654Z,101319.81
2022-11-06T00:14:19.259Z,101314.56
2022-11-06T00:16:49.319Z,101312.31
2022-11-06T00:19:19.370Z,101309.56
2022-11-06T00:21:49.864Z,101319.38
2022-11-06T00:24:19.830Z,101318.03
2022-11-06T00:26:54.611Z,101306.50
2022-11-06T00:29:24.990Z,101314.16
2022-11-06T00:31:55.050Z,101309.78
2022-11-06T00:34:25.072Z,101305.41
2022-11-06T00:36:55.048Z,101310.44
2022-11-06T00:39:25.113Z,101308.28
2022-11-06T00:41:55.585Z,101306.66
2022-11-06T00:44:25.697Z,101303.34
2022-11-06T00:46:55.694Z,101311.78
2022-11-06T00:49:25.692Z,101305.69
2022-11-06T00:51:55.754Z,101314.16
2022-11-06T00:54:25.782Z,101305.09
2022-11-06T00:56:55.810Z,101304.84
2022-11-06T00:59:25.785Z,101307.91
2022-11-06T01:01:55.911Z,101307.63
2022-11-06T01:04:26.076Z,101313.22
2022-11-06T01:06:57.000Z,101309.16
2022-11-06T01:09:29.095Z,101302.59
2022-11-06T01:12:15.898Z,101301.38
2022-11-06T01:14:46.002Z,101298.88
2022-11-06T01:17:15.823Z,101292.56
2022-11-06T01:19:45.603Z,101295.38
2022-11-06T01:22:16.076Z,101295.59
2022-11-06T01:24:46.119Z,101300.50
2022-11-06T01:27:31.119Z,101297.75
2022-11-06T01:30:01.433Z,101295.22
2022-11-06T01:32:31.367Z,101286.13
2022-11-06T01:35:01.166Z,101277.63
2022-11-06T01:37:30.917Z,101279.56
2022-11-06T01:40:00.692Z,101274.59
2022-11-06T01:42:30.433Z,101278.19
2022-11-06T01:45:31.387Z,101279.81
2022-11-06T01:48:01.097Z,101269.97
2022-11-06T01:50:30.580Z,101266.41
2022-11-06T01:53:00.966Z,101261.72
2022-11-06T01:55:42.251Z,101269.09
2022-11-06T01:58:18.628Z,101259.78
2022-11-06T02:00:51.530Z,101254.63
2022-11-06T02:03:23.639Z,101253.28
2022-11-06T02:05:57.894Z,101253.59
2022-11-06T02:08:29.445Z,101244.00
2022-11-06T02:10:59.713Z,101250.06
2022-11-06T02:14:24.924Z,101238.53
2022-11-06T02:17:20.511Z,101246.81
2022-11-06T02:20:31.538Z,101244.31
2022-11-06T02:23:36.660Z,101233.88
2022-11-06T02:26:27.190Z,101237.97
2022-11-06T02:29:14.764Z,101233.59
2022-11-06T02:31:54.493Z,101233.31
2022-11-06T02:34:29.415Z,101225.03
2022-11-06T02:37:15.367Z,101219.31
2022-11-06T02:39:52.646Z,101216.88
2022-11-06T02:42:29.614Z,101225.91
2022-11-06T02:45:03.369Z,101231.91
2022-11-06T02:47:36.624Z,101233.28
2022-11-06T02:50:23.152Z,101232.19
2022-11-06T02:53:08.169Z,101227.78
2022-11-06T02:55:50.581Z,101228.34
2022-11-06T02:58:38.810Z,101235.50
2022-11-06T03:01:39.334Z,101233.03
2022-11-06T03:05:12.706Z,101233.03
2022-11-06T03:07:59.356Z,101217.69
2022-11-06T03:10:50.043Z,101213.56
2022-11-06T03:13:51.408Z,101214.38
2022-11-06T03:16:42.619Z,101219.94
2022-11-06T03:19:57.920Z,101224.81
2022-11-06T03:22:49.354Z,101218.75
2022-11-06T03:25:35.560Z,101222.31
2022-11-06T03:29:00.305Z,101227.47
2022-11-06T03:31:52.404Z,101229.91
2022-11-06T03:34:53.146Z,101230.13
2022-11-06T03:37:42.438Z,101234.78
2022-11-06T03:40:19.813Z,101230.91
2022-11-06T03:43:01.111Z,101223.97
2022-11-06T03:45:36.313Z,101226.94
2022-11-06T03:48:40.563Z,101223.06
2022-11-06T03:51:37.361Z,101216.75
2022-11-06T03:54:22.272Z,101215.44
2022-11-06T03:57:12.904Z,101219.88
2022-11-06T03:59:59.104Z,101216.88
2022-11-06T04:02:38.106Z,101211.31
2022-11-06T04:05:22.899Z,101211.56
2022-11-06T04:08:16.307Z,101207.56
2022-11-06T04:11:29.700Z,101201.84
2022-11-06T04:14:03.009Z,101199.38
2022-11-06T04:16:50.610Z,101204.84
2022-11-06T04:19:23.902Z,101201.22
2022-11-06T04:22:18.269Z,101190.25
2022-11-06T04:25:23.373Z,101192.16
2022-11-06T04:28:38.280Z,101189.44
2022-11-06T04:32:29.341Z,101191.84
2022-11-06T04:35:29.858Z,101183.63
2022-11-06T04:38:15.150Z,101189.75
2022-11-06T04:41:14.568Z,101195.81
2022-11-06T04:44:25.744Z,101185.66
2022-11-06T04:47:07.752Z,101186.41
2022-11-06T04:49:43.995Z,101199.53
2022-11-06T04:52:24.030Z,101197.59
2022-11-06T04:54:58.481Z,101196.47
2022-11-06T04:57:28.487Z,101190.69
2022-11-06T04:59:58.532Z,101185.78
2022-11-06T05:02:28.597Z,101183.25
2022-11-06T05:04:58.625Z,101183.78
2022-11-06T05:07:28.750Z,101174.09
2022-11-06T05:09:58.720Z,101171.59
2022-11-06T05:12:28.771Z,101165.06
2022-11-06T05:14:58.788Z,101171.03
2022-11-06T05:17:31.525Z,101166.94
2022-11-06T05:20:06.502Z,101173.19
2022-11-06T05:23:01.120Z,101170.53
2022-11-06T05:25:40.240Z,101169.16
2022-11-06T05:28:10.536Z,101165.94
2022-11-06T05:30:40.679Z,101165.31
2022-11-06T05:33:10.647Z,101170.25
2022-11-06T05:35:40.603Z,101167.47
2022-11-06T05:38:10.969Z,101168.84
2022-11-06T05:40:41.095Z,101163.94
2022-11-06T05:43:11.069Z,101166.91
2022-11-06T05:45:41.029Z,101165.84
2022-11-06T05:48:11.367Z,101159.81
2022-11-06T05:50:41.666Z,101179.22
2022-11-06T05:53:11.742Z,101176.47
2022-11-06T05:55:41.696Z,101176.75
2022-11-06T05:58:11.900Z,101179.81
2022-11-06T06:00:42.171Z,101183.94
2022-11-06T06:03:12.407Z,101181.75
2022-11-06T06:05:42.428Z,101173.28
2022-11-06T06:08:12.726Z,101176.03
2022-11-06T06:10:45.944Z,101175.22
2022-11-06T06:13:16.754Z,101170.88
2022-11-06T06:15:46.818Z,101171.16
2022-11-06T06:18:16.932Z,101178.84
2022-11-06T06:20:47.032Z,101183.81
2022-11-06T06:23:16.973Z,101175.00
2022-11-06T06:25:46.967Z,101180.81
2022-11-06T06:28:17.075Z,101179.13
2022-11-06T06:30:47.121Z,101180.47
2022-11-06T06:33:17.089Z,101182.75
2022-11-06T06:35:47.072Z,101186.41
2022-11-06T06:38:17.005Z,101187.25
2022-11-06T06:40:49.833Z,101194.63
2022-11-06T06:43:19.852Z,101199.53
2022-11-06T06:45:49.868Z,101192.75
2022-11-06T06:48:20.000Z,101202.09
2022-11-06T06:50:50.004Z,101205.97
2022-11-06T06:53:21.381Z,101203.81
2022-11-06T06:55:51.787Z,101209.78
2022-11-06T06:58:22.075Z,101200.50
2022-11-06T07:00:52.615Z,101207.13
2022-11-06T07:03:22.694Z,101198.94
2022-11-06T07:05:52.672Z,101187.66
2022-11-06T07:08:22.653Z,101199.53
2022-11-06T07:10:52.820Z,101201.72
2022-11-06T07:13:22.828Z,101200.97
2022-11-06T07:15:52.805Z,101203.16
2022-11-06T07:18:23.675Z,101206.75
2022-11-06T07:20:54.359Z,101212.81
2022-11-06T07:23:24.312Z,101209.84
2022-11-06T07:25:55.010Z,101204.66
2022-11-06T07:28:25.121Z,101202.25
2022-11-06T07:31:00.986Z,101199.50
2022-11-06T07:33:31.671Z,101196.22
2022-11-06T07:36:13.092Z,101203.13
2022-11-06T07:38:44.338Z,101198.44
2022-11-06T07:41:16.146Z,101200.94
2022-11-06T07:43:50.040Z,101197.97
2022-11-06T07:46:20.027Z,101207.88
2022-11-06T07:48:50.117Z,101202.69
2022-11-06T07:51:20.086Z,101206.84
2022-11-06T07:53:50.048Z,101202.69
2022-11-06T07:56:20.015Z,101198.28
2022-11-06T07:58:49.979Z,101187.59
2022-11-06T08:01:19.989Z,101189.50
2022-11-06T08:03:50.050Z,101184.00
2022-11-06T08:06:20.120Z,101192.56
2022-11-06T08:08:51.828Z,101191.44
2022-11-06T08:11:24.890Z,101191.41
2022-11-06T08:13:54.875Z,101189.47
2022-11-06T08:16:24.942Z,101189.19
2022-11-06T08:18:55.721Z,101183.97
2022-11-06T08:21:28.383Z,101182.28
2022-11-06T08:24:01.154Z,101185.81
2022-11-06T08:26:31.977Z,101186.28
2022-11-06T08:29:01.977Z,101177.94
2022-11-06T08:31:32.147Z,101182.31
2022-11-06T08:34:02.208Z,101186.94
2022-11-06T08:36:45.611Z,101181.84
2022-11-06T08:39:19.232Z,101183.44
2022-11-06T08:41:49.183Z,101180.94
2022-11-06T08:44:19.199Z,101179.53
2022-11-06T08:46:52.093Z,101171.69
2022-11-06T08:49:22.306Z,101173.69
2022-11-06T08:51:52.414Z,101163.72
2022-11-06T08:54:22.555Z,101156.22
2022-11-06T08:56:52.656Z,101157.34
2022-11-06T08:59:22.654Z,101150.50
2022-11-06T09:01:52.746Z,101154.16
2022-11-06T09:04:23.427Z,101146.94
2022-11-06T09:06:53.791Z,101146.34
2022-11-06T09:09:23.867Z,101143.91
2022-11-06T09:11:53.923Z,101148.03
2022-11-06T09:14:23.928Z,101151.81
2022-11-06T09:16:54.738Z,101145.03
2022-11-06T09:19:24.691Z,101144.63
2022-11-06T09:21:55.150Z,101146.56
2022-11-06T09:24:49.567Z,101147.91
2022-11-06T09:27:13.544Z,101152.22
2022-11-06T09:29:44.754Z,101158.56
2022-11-06T09:32:13.456Z,101157.34
2022-11-06T09:34:43.530Z,101149.50
2022-11-06T09:37:13.627Z,101154.38
2022-11-06T09:39:43.796Z,101157.81
2022-11-06T09:43:10.853Z,101156.59
2022-11-06T09:45:41.361Z,101154.66
2022-11-06T09:48:15.715Z,101166.31
2022-11-06T09:51:10.879Z,101158.63
2022-11-06T09:54:01.506Z,101152.28
2022-11-06T09:56:41.851Z,101146.56
2022-11-06T09:59:20.741Z,101160.47
2022-11-06T10:02:01.897Z,101168.41
2022-11-06T10:05:00.574Z,101155.59
2022-11-06T10:07:39.652Z,101154.28
2022-11-06T10:10:21.094Z,101146.91
2022-11-06T10:13:28.610Z,101148.75
2022-11-06T10:16:08.301Z,101137.84
2022-11-06T10:19:06.785Z,101142.59
2022-11-06T10:22:07.728Z,101147.72
2022-11-06T10:25:08.246Z,101140.63
2022-11-06T10:28:00.875Z,101139.44
2022-11-06T10:31:06.946Z,101128.53
2022-11-06T10:34:03.206Z,101122.75
2022-11-06T10:36:57.081Z,101128.06
2022-11-06T10:39:36.158Z,101115.19
2022-11-06T10:42:41.008Z,101106.53
2022-11-06T10:45:18.586Z,101107.78
2022-11-06T10:48:31.009Z,101100.00
2022-11-06T10:51:37.990Z,101094.97
2022-11-06T10:54:52.291Z,101082.75
2022-11-06T10:57:44.673Z,101084.94
2022-11-06T11:00:16.399Z,101081.34
2022-11-06T11:02:59.482Z,101079.78
2022-11-06T11:05:44.379Z,101072.13
2022-11-06T11:08:37.050Z,101074.16
2022-11-06T11:11:20.046Z,101068.72
2022-11-06T11:14:02.380Z,101070.88
2022-11-06T11:16:42.780Z,101073.00
2022-11-06T11:19:41.571Z,101061.31
2022-11-06T11:22:18.738Z,101060.00
2022-11-06T11:25:09.181Z,101058.44
2022-11-06T11:27:46.045Z,101048.50
2022-11-06T11:30:29.751Z,101041.72
2022-11-06T11:33:00.017Z,101043.44
2022-11-06T11:35:31.989Z,101047.78
2022-11-06T11:38:16.938Z,101050.88
2022-11-06T11:40:46.087Z,101040.91
2022-11-06T11:43:23.320Z,101040.31
2022-11-06T11:46:20.850Z,101027.56
2022-11-06T11:48:58.316Z,101037.03
2022-11-06T11:51:47.932Z,101030.63
2022-11-06T11:54:27.930Z,101030.34
2022-11-06T11:57:08.371Z,101027.63
2022-11-06T11:59:49.789Z,101014.38
2022-11-06T12:02:44.219Z,101031.75
2022-11-06T12:05:32.449Z,101019.56
2022-11-06T12:08:05.048Z,101009.19
2022-11-06T12:10:42.743Z,100999.06
2022-11-06T12:13:16.418Z,100988.94
2022-11-06T12:16:00.505Z,100981.53
2022-11-06T12:18:46.259Z,100985.47
2022-11-06T12:21:38.911Z,100976.00
2022-11-06T12:24:32.417Z,100976.75
2022-11-06T12:27:22.030Z,100976.81
2022-11-06T12:30:15.897Z,100980.25
2022-11-06T12:33:18.385Z,100980.34
2022-11-06T12:36:20.285Z,100976.19
2022-11-06T12:39:11.987Z,100974.84
2022-11-06T12:41:52.136Z,100967.22
2022-11-06T12:44:22.169Z,100965.78
2022-11-06T12:47:34.464Z,100977.25
2022-11-06T12:50:36.535Z,100968.97
2022-11-06T12:53:48.602Z,100964.06
2022-11-06T12:57:16.511Z,100956.63
2022-11-06T13:00:13.400Z,100966.47
2022-11-06T13:03:32.701Z,100955.72
2022-11-06T13:06:27.834Z,100954.22
2022-11-06T13:09:24.736Z,100945.91
2022-11-06T13:12:32.637Z,100947.06
2022-11-06T13:15:36.001Z,100940.75
2022-11-06T13:18:52.879Z,100955.09
2022-11-06T13:21:52.452Z,100945.03
2022-11-06T13:25:08.793Z,100934.41
2022-11-06T13:28:45.497Z,100929.50
2022-11-06T13:31:25.698Z,100925.94
2022-11-06T13:34:02.954Z,100913.91
2022-11-06T13:36:37.918Z,100913.47
2022-11-06T13:39:34.763Z,100910.75
2022-11-06T13:42:40.034Z,100908.69
2022-11-06T13:45:17.436Z,100906.13
2022-11-06T13:48:37.389Z,100901.53
2022-11-06T13:51:37.226Z,100894.19
2022-11-06T13:54:28.740Z,100894.59
2022-11-06T13:57:44.649Z,100891.25
2022-11-06T14:00:52.458Z,100889.81
2022-11-06T14:04:22.785Z,100903.34
2022-11-06T14:07:04.383Z,100898.78
2022-11-06T14:09:43.025Z,100897.88
2022-11-06T14:12:22.616Z,100891.25
2022-11-06T14:15:29.211Z,100877.09
2022-11-06T14:18:02.138Z,100877.41
2022-11-06T14:20:38.986Z,100885.31
2022-11-06T14:23:30.500Z,100886.50
2022-11-06T14:26:38.911Z,100876.47
2022-11-06T14:29:27.188Z,100871.44
2022-11-06T14:32:31.987Z,100877.53
2022-11-06T14:35:29.952Z,100868.09
2022-11-06T14:38:29.771Z,100863.28
2022-11-06T14:41:01.675Z,100862.53
2022-11-06T14:43:35.255Z,100858.69
2022-11-06T14:46:22.738Z,100859.63
2022-11-06T14:49:09.963Z,100852.66
2022-11-06T14:51:40.199Z,100847.13
2022-11-06T14:54:25.087Z,100845.13
2022-11-06T14:56:57.099Z,100838.63
2022-11-06T14:59:40.814Z,100834.75
2022-11-06T15:02:30.380Z,100819.31
2022-11-06T15:05:17.607Z,100817.47
2022-11-06T15:10:43.295Z,100821.78
2022-11-06T15:13:20.095Z,100827.38
2022-11-06T15:16:03.223Z,100829.00
2022-11-06T15:18:45.691Z,100832.66
2022-11-06T15:21:29.795Z,100830.16
2022-11-06T15:24:31.384Z,100824.88
2022-11-06T15:27:16.343Z,100824.00
2022-11-06T15:29:56.096Z,100823.09
2022-11-06T15:32:38.214Z,100823.06
2022-11-06T15:35:31.329Z,100830.41
2022-11-06T15:38:20.116Z,100830.88
2022-11-06T15:40:54.697Z,100820.25
2022-11-06T15:43:34.351Z,100818.44
2022-11-06T15:46:28.439Z,100823.22
2022-11-06T15:49:21.180Z,100814.25
2022-11-06T15:52:03.364Z,100816.56
2022-11-06T15:54:44.094Z,100807.75
2022-11-06T15:57:30.009Z,100807.53
2022-11-06T16:00:24.889Z,100801.84
2022-11-06T16:03:06.621Z,100796.16
2022-11-06T16:05:37.897Z,100802.81
2022-11-06T16:08:12.572Z,100788.59
2022-11-06T16:10:48.355Z,100777.06
2022-11-06T16:13:24.367Z,100777.22
2022-11-06T16:16:02.832Z,100767.66
2022-11-06T16:18:49.431Z,100764.72
2022-11-06T16:21:27.065Z,100768.94
2022-11-06T16:24:20.289Z,100763.19
2022-11-06T16:26:55.513Z,100760.44
2022-11-06T16:29:31.759Z,100752.97
2022-11-06T16:32:41.324Z,100750.81
2022-11-06T16:35:37.068Z,100754.13
2022-11-06T16:38:39.340Z,100750.84
2022-11-06T16:41:08.450Z,100745.94
2022-11-06T16:43:39.419Z,100748.16
2022-11-06T16:46:09.494Z,100747.63
2022-11-06T16:48:45.622Z,100742.31
2022-11-06T16:51:33.969Z,100743.19
2022-11-06T16:54:04.523Z,100742.13
2022-11-06T16:56:35.664Z,100745.44
2022-11-06T16:59:22.563Z,100753.47
2022-11-06T17:01:53.200Z,100755.13
2022-11-06T17:04:29.884Z,100753.00
2022-11-06T17:07:00.128Z,100751.13
2022-11-06T17:09:35.672Z,100750.03
2022-11-06T17:12:16.252Z,100748.38
2022-11-06T17:14:48.528Z,100755.56
2022-11-06T17:17:26.879Z,100753.66
2022-11-06T17:19:56.906Z,100752.31
2022-11-06T17:22:26.914Z,100741.91
2022-11-06T17:24:56.913Z,100751.53
2022-11-06T17:27:26.931Z,100757.88
2022-11-06T17:29:57.073Z,100748.56
2022-11-06T17:32:27.101Z,100751.56
2022-11-06T17:34:57.125Z,100751.88
2022-11-06T17:37:30.094Z,100745.28
2022-11-06T17:40:02.984Z,100734.53
2022-11-06T17:42:33.011Z,100746.88
2022-11-06T17:45:03.181Z,100742.19
2022-11-06T17:47:33.147Z,100760.28
2022-11-06T17:50:03.749Z,100751.19
2022-11-06T17:52:33.927Z,100750.06
2022-11-06T17:55:06.138Z,100746.47
2022-11-06T17:57:36.543Z,100744.50
2022-11-06T18:00:08.307Z,100737.59
2022-11-06T18:02:59.595Z,100741.72
2022-11-06T18:05:29.142Z,100754.34
2022-11-06T18:07:59.086Z,100747.69
2022-11-06T18:10:30.716Z,100744.66
2022-11-06T18:13:00.968Z,100727.34
2022-11-06T18:15:35.746Z,100731.97
2022-11-06T18:18:08.165Z,100725.09
2022-11-06T18:20:47.412Z,100739.44
2022-11-06T18:23:17.757Z,100735.63
2022-11-06T18:25:58.821Z,100732.63
2022-11-06T18:28:28.820Z,100724.09
2022-11-06T18:30:59.986Z,100733.22
2022-11-06T18:33:30.817Z,100729.88
2022-11-06T18:36:04.797Z,100725.78
2022-11-06T18:38:36.098Z,100723.03
2022-11-06T18:41:17.543Z,100720.31
2022-11-06T18:43:49.222Z,100718.94
2022-11-06T18:46:19.553Z,100707.09
2022-11-06T18:48:50.297Z,100711.75
2022-11-06T18:51:35.489Z,100720.59
2022-11-06T18:54:11.479Z,100719.78
2022-11-06T18:56:42.421Z,100723.63
2022-11-06T18:59:19.680Z,100717.38
2022-11-06T19:01:49.927Z,100716.50
2022-11-06T19:04:21.948Z,100718.97
2022-11-06T19:06:52.032Z,100727.25
2022-11-06T19:09:25.245Z,100720.13
2022-11-06T19:11:55.203Z,100720.94
2022-11-06T19:14:25.175Z,100723.16
2022-11-06T19:16:55.165Z,100712.28
2022-11-06T19:19:26.020Z,100718.06
2022-11-06T19:21:56.287Z,100726.94
2022-11-06T19:24:26.257Z,100721.97
2022-11-06T19:26:56.367Z,100723.38
2022-11-06T19:29:26.346Z,100721.50
2022-11-06T19:32:01.568Z,100718.47
2022-11-06T19:34:36.575Z,100722.34
2022-11-06T19:37:08.949Z,100737.22
2022-11-06T19:39:38.788Z,100719.59
2022-11-06T19:42:09.078Z,100724.56
2022-11-06T19:44:38.850Z,100730.59
2022-11-06T19:47:08.665Z,100720.97
2022-11-06T19:49:38.482Z,100720.69
2022-11-06T19:52:44.169Z,100717.34
2022-11-06T19:55:25.793Z,100709.38
2022-11-06T19:57:49.743Z,100707.97
2022-11-06T20:00:19.403Z,100701.66
2022-11-06T20:02:50.855Z,100705.19
2022-11-06T20:05:21.107Z,100699.66
2022-11-06T20:07:50.842Z,100707.59
2022-11-06T20:10:20.652Z,100702.09
2022-11-06T20:12:50.406Z,100705.00
2022-11-06T20:15:23.901Z,100707.34
2022-11-06T20:17:54.416Z,100708.25
2022-11-06T20:20:25.398Z,100700.00
2022-11-06T20:22:55.594Z,100702.69
2022-11-06T20:25:25.171Z,100695.50
2022-11-06T20:27:55.220Z,100703.50
2022-11-06T20:30:24.901Z,100695.19
2022-11-06T20:32:54.685Z,100701.13
2022-11-06T20:35:24.377Z,100697.59
2022-11-06T20:37:54.163Z,100693.56
2022-11-06T20:40:23.962Z,100694.13
2022-11-06T20:42:53.675Z,100692.22
2022-11-06T20:45:23.786Z,100684.16
2022-11-06T20:47:54.073Z,100681.44
2022-11-06T20:50:23.775Z,100672.38
2022-11-06T20:52:53.514Z,100667.34
2022-11-06T20:55:23.175Z,100661.84
2022-11-06T20:57:52.936Z,100653.38
2022-11-06T21:00:22.969Z,100648.41
2022-11-06T21:02:56.268Z,100649.25
2022-11-06T21:05:29.036Z,100640.66
2022-11-06T21:07:58.830Z,100639.09
2022-11-06T21:10:28.569Z,100636.06
2022-11-06T21:12:59.546Z,100628.41
2022-11-06T21:15:29.555Z,100627.81
2022-11-06T21:17:59.214Z,100626.41
2022-11-06T21:20:28.994Z,100627.53
2022-11-06T21:22:59.061Z,100622.03
2022-11-06T21:25:29.009Z,100619.22
2022-11-06T21:27:58.858Z,100619.03
2022-11-06T21:30:29.130Z,100620.38
2022-11-06T21:32:59.005Z,100614.66
2022-11-06T21:35:28.882Z,100612.47
2022-11-06T21:38:01.657Z,100609.69
2022-11-06T21:40:31.702Z,100600.75
2022-11-06T21:42:59.520Z,100601.38
2022-11-06T21:45:29.576Z,100603.03
2022-11-06T21:47:59.412Z,100603.13
2022-11-06T21:50:30.653Z,100594.25
2022-11-06T21:53:18.976Z,100592.41
2022-11-06T21:56:01.690Z,100596.84
2022-11-06T21:58:31.092Z,100596.31
2022-11-06T22:01:06.734Z,100591.88
2022-11-06T22:03:37.399Z,100596.56
2022-11-06T22:06:13.175Z,100583.56
2022-11-06T22:08:45.536Z,100594.63
2022-11-06T22:11:30.716Z,100580.72
2022-11-06T22:14:09.079Z,100590.09
2022-11-06T22:16:43.363Z,100580.38
2022-11-06T22:19:15.725Z,100581.06
2022-11-06T22:21:45.248Z,100586.34
2022-11-06T22:24:15.827Z,100583.31
2022-11-06T22:26:44.383Z,100569.09
2022-11-06T22:29:18.953Z,100575.91
2022-11-06T22:31:46.453Z,100572.63
2022-11-06T22:34:16.446Z,100583.13
2022-11-06T22:36:46.533Z,100579.50
2022-11-06T22:39:16.382Z,100584.66
2022-11-06T22:41:46.011Z,100576.69
2022-11-06T22:44:16.333Z,100572.88
2022-11-06T22:46:47.022Z,100576.41
2022-11-06T22:49:16.844Z,100568.78
2022-11-06T22:51:48.037Z,100567.97
2022-11-06T22:54:16.537Z,100576.81
2022-11-06T22:56:46.727Z,100577.75
2022-11-06T22:59:16.428Z,100576.44
2022-11-06T23:01:46.579Z,100577.34
2022-11-06T23:04:16.753Z,100574.34
2022-11-06T23:06:46.712Z,100574.94
2022-11-06T23:09:16.589Z,100570.84
2022-11-06T23:11:47.293Z,100571.66
2022-11-06T23:14:17.400Z,100571.13
2022-11-06T23:17:01.102Z,100572.47
2022-11-06T23:19:32.277Z,100581.78
2022-11-06T23:22:22.427Z,100582.91
2022-11-06T23:24:53.006Z,100578.22
2022-11-06T23:27:22.499Z,100580.69
2022-11-06T23:29:52.334Z,100585.13
2022-11-06T23:32:22.668Z,100577.41
2022-11-06T23:34:53.115Z,100577.69
2022-11-06T23:37:23.284Z,100566.09
2022-11-06T23:39:54.068Z,100564.38
2022-11-06T23:42:24.460Z,100565.63
2022-11-06T23:45:13.137Z,100571.44
2022-11-06T23:47:42.896Z,100555.44
2022-11-06T23:50:15.131Z,100565.63
2022-11-06T23:52:42.518Z,100572.25
2022-11-06T23:55:12.778Z,100564.22
2022-11-06T23:57:42.998Z,100557.88
